Time;durP1;ratioP1;P1;durP2;ratioP2;P2;SDS_P1;SDS_P2;PMS_P1;PMS_P2;Temp;Humidity;BMP_temperature;BMP_pressure;BME280_temperature;BME280_humidity;BME280_pressure;Samples;Min_cycle;Max_cycle;Signal;HPM_P1;HPM_P2
2023/04/10 00:00:18;;;;;;;21.48;10.52;;;9.90;99.90;;;;;;5108008;28;20035;-56
2023/04/10 00:02:47;;;;;;;19.92;9.48;;;9.90;99.90;;;;;;5107475;28;20055;-56
2023/04/10 00:05:15;;;;;;;21.58;10.00;;;10.00;99.90;;;;;;5107608;28;20408;-55
2023/04/10 00:07:43;;;;;;;20.92;9.82;;;9.90;99.90;;;;;;5086512;28;20535;-56
2023/04/10 00:10:10;;;;;;;21.27;9.85;;;10.00;99.90;;;;;;5103468;28;20423;-54
2023/04/10 00:12:38;;;;;;;21.75;10.38;;;9.90;99.90;;;;;;5107017;28;20399;-58
2023/04/10 00:15:07;;;;;;;19.75;9.73;;;9.90;99.90;;;;;;5089991;28;20051;-57
2023/04/10 00:17:34;;;;;;;22.83;10.63;;;9.90;99.90;;;;;;5090635;28;20036;-56
2023/04/10 00:20:03;;;;;;;24.75;11.48;;;10.00;99.90;;;;;;5111685;28;20048;-56
2023/04/10 00:22:31;;;;;;;25.92;11.93;;;9.90;99.90;;;;;;5111906;28;20040;-54
2023/04/10 00:24:59;;;;;;;24.15;11.93;;;10.00;99.90;;;;;;5111172;28;20052;-56
2023/04/10 00:27:26;;;;;;;23.65;10.60;;;9.90;99.90;;;;;;5108205;28;20055;-56
2023/04/10 00:29:54;;;;;;;18.88;9.85;;;10.00;99.90;;;;;;5111662;28;20050;-55
2023/04/10 00:32:22;;;;;;;22.83;10.15;;;10.00;99.90;;;;;;5093298;28;20044;-55
2023/04/10 00:34:51;;;;;;;23.55;11.25;;;10.00;99.90;;;;;;5106651;28;20054;-56
2023/04/10 00:37:19;;;;;;;23.45;10.55;;;10.00;99.90;;;;;;5093046;28;20062;-56
2023/04/10 00:39:47;;;;;;;26.50;10.90;;;10.00;99.90;;;;;;5111006;28;20043;-55
2023/04/10 00:42:15;;;;;;;23.52;10.68;;;10.00;99.90;;;;;;5092582;28;20035;-56
2023/04/10 00:44:44;;;;;;;27.02;11.43;;;10.00;99.90;;;;;;5084612;28;20036;-55
2023/04/10 00:47:12;;;;;;;21.42;11.70;;;10.00;99.90;;;;;;5072579;28;20044;-55
2023/04/10 00:49:41;;;;;;;21.63;11.02;;;10.00;99.90;;;;;;5075290;28;20541;-56
2023/04/10 00:52:11;;;;;;;22.85;11.02;;;10.00;99.90;;;;;;5090469;28;20040;-56
2023/04/10 00:54:41;;;;;;;23.85;12.13;;;10.00;99.90;;;;;;5104907;28;20043;-54
2023/04/10 00:57:10;;;;;;;24.48;12.27;;;10.00;99.90;;;;;;5075605;28;20047;-54
2023/04/10 00:59:41;;;;;;;22.63;9.80;;;;;;;;;;5110625;28;20040;-55
2023/04/10 01:02:11;;;;;;;24.80;11.13;;;10.00;99.90;;;;;;5070001;28;20048;-55
2023/04/10 01:04:41;;;;;;;23.50;11.00;;;10.00;99.90;;;;;;5102796;28;20051;-56
2023/04/10 01:07:31;;;;;;;32.35;12.27;;;10.00;99.90;;;;;;5090398;28;20063;-55
2023/04/10 01:10:26;;;;;;;29.07;12.33;;;10.00;99.90;;;;;;5090372;28;20047;-56
2023/04/10 01:13:14;;;;;;;27.73;12.70;;;9.90;99.90;;;;;;5101906;28;20668;-56
2023/04/10 01:16:00;;;;;;;25.17;12.70;;;10.00;99.90;;;;;;5110724;28;20482;-57
2023/04/10 01:18:37;;;;;;;25.05;12.57;;;10.00;99.90;;;;;;5110166;28;20051;-55
2023/04/10 01:21:08;;;;;;;28.02;13.18;;;9.90;99.90;;;;;;5075567;28;20499;-54
2023/04/10 01:24:14;;;;;;;27.88;12.13;;;9.90;99.90;;;;;;5110317;28;20044;-55
2023/04/10 01:27:18;;;;;;;27.85;12.90;;;9.90;99.90;;;;;;5063624;28;20537;-56
2023/04/10 01:29:52;;;;;;;24.58;11.65;;;9.90;99.90;;;;;;5090072;28;20047;-55
2023/04/10 01:32:22;;;;;;;26.90;12.52;;;9.90;99.90;;;;;;5082494;28;20063;-55
2023/04/10 01:34:53;;;;;;;25.77;12.80;;;9.80;99.90;;;;;;5091728;28;20052;-56
2023/04/10 01:37:27;;;;;;;30.05;13.45;;;9.80;99.90;;;;;;5110262;28;20048;-56
2023/04/10 01:40:01;;;;;;;29.05;14.27;;;9.80;99.90;;;;;;5113343;28;20047;-55
2023/04/10 01:42:31;;;;;;;29.80;14.02;;;9.80;99.90;;;;;;5111590;28;20047;-54
2023/04/10 01:45:00;;;;;;;31.88;14.30;;;9.70;99.90;;;;;;5096789;28;20424;-55
2023/04/10 01:47:29;;;;;;;37.07;16.63;;;9.70;99.90;;;;;;5109384;28;20048;-55
2023/04/10 01:49:57;;;;;;;27.10;14.27;;;9.70;99.90;;;;;;5113556;28;20486;-54
2023/04/10 01:52:26;;;;;;;36.08;16.42;;;9.70;99.90;;;;;;5095110;28;20044;-54
2023/04/10 01:55:07;;;;;;;33.50;15.35;;;9.60;99.90;;;;;;5112090;28;20399;-55
2023/04/10 01:57:43;;;;;;;34.83;15.88;;;9.60;99.90;;;;;;5094199;28;20040;-55
2023/04/10 02:00:11;;;;;;;36.58;16.08;;;9.60;99.90;;;;;;5095079;28;20044;-55
2023/04/10 02:02:43;;;;;;;38.63;17.45;;;9.60;99.90;;;;;;5111902;28;20032;-55
2023/04/10 02:05:11;;;;;;;34.47;16.57;;;9.60;99.90;;;;;;5094810;28;20399;-55
2023/04/10 02:07:54;;;;;;;36.85;17.27;;;9.60;99.90;;;;;;5112999;28;20047;-56
2023/04/10 02:10:28;;;;;;;37.05;16.60;;;9.50;99.90;;;;;;5113040;28;20048;-54
2023/04/10 02:13:09;;;;;;;36.88;15.98;;;9.60;99.90;;;;;;5111483;28;20581;-57
2023/04/10 02:15:42;;;;;;;40.00;17.52;;;9.60;99.90;;;;;;5111167;28;20525;-55
2023/04/10 02:18:10;;;;;;;38.75;17.40;;;9.50;99.90;;;;;;5076871;28;20491;-55
2023/04/10 02:20:38;;;;;;;33.90;15.68;;;9.50;99.90;;;;;;5108225;28;20048;-57
2023/04/10 02:23:06;;;;;;;33.85;16.17;;;9.50;99.90;;;;;;5111747;28;20051;-55
2023/04/10 02:25:34;;;;;;;35.17;17.02;;;9.50;99.90;;;;;;5112778;28;20055;-55
2023/04/10 02:28:06;;;;;;;35.22;16.50;;;9.50;99.90;;;;;;5112506;28;20410;-56
2023/04/10 02:30:34;;;;;;;40.08;17.00;;;9.40;99.90;;;;;;5112763;28;20054;-57
2023/04/10 02:33:02;;;;;;;36.78;15.77;;;9.40;99.90;;;;;;5094706;28;20044;-57
2023/04/10 02:35:32;;;;;;;33.60;15.18;;;9.40;99.90;;;;;;5093568;28;20052;-57
2023/04/10 02:38:02;;;;;;;32.95;14.77;;;9.40;99.90;;;;;;5092626;28;20083;-57
2023/04/10 02:40:31;;;;;;;32.75;15.90;;;9.30;99.90;;;;;;5112364;28;20516;-57
2023/04/10 02:43:16;;;;;;;32.35;16.05;;;9.30;99.90;;;;;;5094235;28;20040;-58
2023/04/10 02:45:47;;;;;;;33.70;14.82;;;9.30;99.90;;;;;;5112553;28;20047;-55
2023/04/10 02:48:21;;;;;;;36.63;15.95;;;9.30;99.90;;;;;;5094637;28;20383;-56
2023/04/10 02:50:57;;;;;;;36.22;17.38;;;9.30;99.90;;;;;;5094487;28;20499;-57
2023/04/10 02:53:27;;;;;;;37.33;16.88;;;9.30;99.90;;;;;;5111107;28;20040;-57
2023/04/10 02:55:58;;;;;;;38.95;16.75;;;9.30;99.90;;;;;;5111407;28;20465;-56
2023/04/10 02:58:29;;;;;;;36.03;17.27;;;9.30;99.90;;;;;;5110978;28;20063;-56
2023/04/10 03:00:57;;;;;;;37.03;16.63;;;9.30;99.90;;;;;;5097353;28;20051;-56
2023/04/10 03:03:45;;;;;;;38.45;16.33;;;9.30;99.90;;;;;;5073457;28;20051;-57
2023/04/10 03:06:26;;;;;;;33.95;17.05;;;9.40;99.90;;;;;;5083496;28;20055;-58
2023/04/10 03:08:56;;;;;;;38.53;17.58;;;9.40;99.90;;;;;;5093995;28;20036;-54
2023/04/10 03:11:23;;;;;;;39.72;18.50;;;9.40;99.90;;;;;;5094026;28;20051;-55
2023/04/10 03:13:51;;;;;;;35.78;17.42;;;9.40;99.90;;;;;;5110235;28;20115;-56
2023/04/10 03:16:19;;;;;;;36.03;16.13;;;9.40;99.90;;;;;;5094017;28;20048;-57
2023/04/10 03:18:47;;;;;;;37.60;16.45;;;9.50;99.90;;;;;;5093925;28;20035;-55
2023/04/10 03:21:15;;;;;;;37.08;16.33;;;9.40;99.90;;;;;;5093494;28;20044;-56
2023/04/10 03:23:43;;;;;;;50.78;19.65;;;9.40;99.90;;;;;;5093932;28;20040;-56
2023/04/10 03:26:10;;;;;;;43.35;19.13;;;9.50;99.90;;;;;;5111652;28;20479;-57
2023/04/10 03:28:38;;;;;;;36.65;17.02;;;9.40;99.90;;;;;;5092790;28;20035;-57
2023/04/10 03:31:09;;;;;;;38.83;15.80;;;9.50;99.90;;;;;;5093805;28;20110;-57
2023/04/10 03:33:39;;;;;;;31.73;15.50;;;9.50;99.90;;;;;;5093763;28;20043;-56
2023/04/10 03:36:07;;;;;;;36.88;17.08;;;9.50;99.90;;;;;;5111306;28;20048;-56
2023/04/10 03:38:35;;;;;;;38.00;17.10;;;9.50;99.90;;;;;;5108351;28;20043;-58
2023/04/10 03:41:04;;;;;;;37.40;15.95;;;9.50;99.90;;;;;;5093656;28;20070;-57
2023/04/10 03:43:32;;;;;;;39.25;16.83;;;9.50;99.90;;;;;;5093389;28;20047;-57
2023/04/10 03:46:02;;;;;;;42.20;16.70;;;9.50;99.90;;;;;;5092968;28;20052;-58
2023/04/10 03:48:32;;;;;;;28.00;13.95;;;9.50;99.90;;;;;;5110503;28;20398;-56
2023/04/10 03:51:01;;;;;;;35.08;14.45;;;9.50;99.90;;;;;;5093490;28;20051;-56
2023/04/10 03:53:28;;;;;;;33.17;15.88;;;9.50;99.90;;;;;;5114704;28;20042;-57
2023/04/10 03:55:57;;;;;;;34.88;15.65;;;9.60;99.90;;;;;;5079779;28;20035;-58
2023/04/10 03:58:25;;;;;;;30.38;14.50;;;9.50;99.90;;;;;;5114071;28;20048;-57
2023/04/10 04:00:54;;;;;;;31.45;13.95;;;9.60;99.90;;;;;;5097107;28;20051;-57
2023/04/10 04:03:38;;;;;;;29.23;13.68;;;9.60;99.90;;;;;;5097267;28;20050;-58
2023/04/10 04:06:26;;;;;;;35.80;14.35;;;9.60;99.90;;;;;;5115325;28;20044;-56
2023/04/10 04:09:17;;;;;;;31.30;13.43;;;9.60;99.90;;;;;;5074801;28;20063;-57
2023/04/10 04:12:00;;;;;;;32.85;13.88;;;9.60;99.90;;;;;;5083000;28;20040;-56
2023/04/10 04:14:47;;;;;;;26.08;12.35;;;9.70;99.90;;;;;;5092665;28;20040;-56
2023/04/10 04:17:42;;;;;;;25.65;11.23;;;9.00;99.90;;;;;;5097009;28;20044;-58
2023/04/10 04:20:29;;;;;;;37.03;15.50;;;9.70;99.90;;;;;;5114957;28;20051;-58
2023/04/10 04:23:13;;;;;;;27.33;12.65;;;9.70;99.90;;;;;;5096997;28;20608;-58
2023/04/10 04:25:59;;;;;;;23.33;12.52;;;9.70;99.90;;;;;;5114981;28;20497;-58
2023/04/10 04:28:30;;;;;;;27.73;12.15;;;9.70;99.90;;;;;;5113450;28;20038;-58
2023/04/10 04:31:19;;;;;;;29.65;13.02;;;9.70;99.90;;;;;;5114910;28;20051;-56
2023/04/10 04:33:50;;;;;;;29.67;12.88;;;9.70;99.90;;;;;;5114812;28;20047;-58
2023/04/10 04:36:36;;;;;;;26.02;12.57;;;9.70;99.90;;;;;;5091413;28;20052;-58
2023/04/10 04:39:23;;;;;;;24.58;10.23;;;9.70;99.90;;;;;;5094394;28;20047;-59
2023/04/10 04:42:09;;;;;;;22.25;10.95;;;9.70;99.90;;;;;;5093573;28;20048;-59
2023/04/10 04:44:49;;;;;;;24.83;12.35;;;9.70;99.90;;;;;;5081451;28;20052;-55
2023/04/10 04:47:27;;;;;;;28.30;12.40;;;9.70;99.90;;;;;;5093239;28;20036;-56
2023/04/10 04:50:30;;;;;;;23.73;10.95;;;9.80;99.90;;;;;;5076008;28;20062;-57
2023/04/10 04:53:21;;;;;;;25.08;11.10;;;9.70;99.90;;;;;;5073679;28;20597;-58
2023/04/10 04:56:08;;;;;;;25.30;11.15;;;9.80;99.90;;;;;;5110543;28;20042;-58
2023/04/10 04:59:05;;;;;;;19.27;10.48;;;9.80;99.90;;;;;;5110379;28;20507;-55
2023/04/10 05:01:51;;;;;;;24.77;10.55;;;9.80;99.90;;;;;;5107279;28;20051;-57
2023/04/10 05:04:38;;;;;;;19.63;9.98;;;9.80;99.90;;;;;;5105504;28;20032;-58
2023/04/10 05:07:20;;;;;;;22.97;10.90;;;9.90;99.90;;;;;;5073396;28;20213;-57
2023/04/10 05:10:08;;;;;;;22.35;10.35;;;9.90;99.90;;;;;;5097531;28;20288;-58
2023/04/10 05:12:54;;;;;;;22.05;11.35;;;9.90;99.90;;;;;;5095379;28;20044;-58
2023/04/10 05:15:44;;;;;;;21.77;9.90;;;9.80;99.90;;;;;;5089913;28;20046;-58
2023/04/10 05:18:33;;;;;;;24.17;10.65;;;9.90;99.90;;;;;;5088708;28;20040;-57
2023/04/10 05:21:19;;;;;;;22.42;11.07;;;9.90;99.90;;;;;;5090847;28;20047;-56
2023/04/10 05:24:10;;;;;;;23.83;9.88;;;10.10;99.90;;;;;;5107226;28;20812;-57
2023/04/10 05:26:56;;;;;;;21.30;10.60;;;9.80;99.90;;;;;;5107432;28;20066;-58
2023/04/10 05:29:58;;;;;;;25.10;10.55;;;9.80;99.90;;;;;;5089022;28;20044;-58
2023/04/10 05:32:42;;;;;;;23.55;10.48;;;9.90;99.90;;;;;;5071097;28;20394;-56
2023/04/10 05:35:35;;;;;;;20.20;9.77;;;9.90;99.90;;;;;;5103894;28;20047;-55
2023/04/10 05:38:24;;;;;;;18.15;8.82;;;9.80;99.90;;;;;;5083929;28;20040;-54
2023/04/10 05:41:01;;;;;;;19.65;9.50;;;9.90;99.90;;;;;;5056369;28;20048;-55
2023/04/10 05:43:39;;;;;;;21.80;9.15;;;9.90;99.90;;;;;;5088074;28;20039;-56
2023/04/10 05:46:24;;;;;;;26.08;10.23;;;9.90;99.90;;;;;;5090552;28;20047;-55
2023/04/10 05:49:10;;;;;;;16.17;8.38;;;9.90;99.90;;;;;;5076195;28;20051;-55
2023/04/10 05:51:49;;;;;;;14.07;7.50;;;9.90;99.90;;;;;;5087863;28;20035;-54
2023/04/10 05:54:35;;;;;;;19.83;9.18;;;9.90;99.90;;;;;;5109643;28;20036;-56
2023/04/10 05:57:10;;;;;;;16.50;8.40;;;9.90;99.90;;;;;;5074432;28;20521;-56
2023/04/10 05:59:41;;;;;;;17.15;8.98;;;9.90;99.90;;;;;;5109407;28;20054;-56
2023/04/10 06:02:20;;;;;;;19.48;9.20;;;10.00;99.90;;;;;;5109432;28;20046;-57
2023/04/10 06:04:50;;;;;;;15.00;7.57;;;10.00;99.90;;;;;;5072474;28;20518;-55
2023/04/10 06:07:18;;;;;;;17.30;8.70;;;10.00;99.90;;;;;;5087773;28;20387;-55
2023/04/10 06:09:46;;;;;;;15.20;7.72;;;10.00;99.90;;;;;;5091278;28;20071;-56
2023/04/10 06:12:13;;;;;;;17.08;6.97;;;10.00;99.90;;;;;;5108232;28;20052;-55
2023/04/10 06:14:41;;;;;;;18.38;7.15;;;10.10;99.90;;;;;;5077417;28;20514;-55
2023/04/10 06:17:09;;;;;;;14.68;7.55;;;10.00;99.90;;;;;;5072587;28;20391;-55
2023/04/10 06:19:37;;;;;;;13.85;6.22;;;10.10;99.90;;;;;;5075220;28;20036;-55
2023/04/10 06:22:05;;;;;;;13.38;6.85;;;10.10;99.90;;;;;;5090958;28;20071;-55
2023/04/10 06:24:33;;;;;;;10.98;6.85;;;10.10;99.90;;;;;;5091215;28;20039;-55
2023/04/10 06:27:01;;;;;;;14.48;6.35;;;10.10;99.90;;;;;;5106291;28;20071;-55
2023/04/10 06:29:29;;;;;;;13.02;6.35;;;10.10;99.90;;;;;;5104542;28;20059;-54
2023/04/10 06:31:56;;;;;;;12.85;6.72;;;10.10;99.90;;;;;;5089402;28;20039;-56
2023/04/10 06:34:24;;;;;;;11.18;5.90;;;10.10;99.90;;;;;;5085347;28;20503;-54
2023/04/10 06:36:58;;;;;;;9.10;5.32;;;10.10;99.90;;;;;;5084612;28;20070;-54
2023/04/10 06:39:26;;;;;;;10.13;5.25;;;10.20;99.90;;;;;;5070338;28;20514;-54
2023/04/10 06:41:55;;;;;;;13.43;5.97;;;10.20;99.90;;;;;;5087927;28;20044;-55
2023/04/10 06:44:40;;;;;;;10.98;5.78;;;10.10;99.90;;;;;;5090997;28;20044;-55
2023/04/10 06:47:09;;;;;;;9.50;5.90;;;10.10;99.90;;;;;;5107430;28;20054;-54
2023/04/10 06:49:36;;;;;;;9.50;5.25;;;10.10;99.90;;;;;;5107371;28;20052;-55
2023/04/10 06:52:05;;;;;;;10.80;6.53;;;10.10;99.90;;;;;;5107643;28;20043;-55
2023/04/10 06:54:33;;;;;;;10.18;5.03;;;10.20;99.90;;;;;;5103849;28;20052;-55
2023/04/10 06:57:00;;;;;;;7.88;5.00;;;10.20;99.90;;;;;;5088817;28;20052;-55
2023/04/10 06:59:28;;;;;;;10.32;5.75;;;10.20;99.90;;;;;;5107915;28;20051;-55
2023/04/10 07:01:56;;;;;;;7.22;4.57;;;10.20;99.90;;;;;;5095549;28;20040;-54
2023/04/10 07:04:23;;;;;;;7.18;4.85;;;10.20;99.90;;;;;;5104567;28;20040;-55
2023/04/10 07:06:51;;;;;;;11.20;5.15;;;10.20;99.90;;;;;;5105926;28;20054;-55
2023/04/10 07:09:19;;;;;;;7.45;4.90;;;10.20;99.90;;;;;;5108359;28;20051;-56
2023/04/10 07:11:47;;;;;;;8.07;4.97;;;10.20;99.90;;;;;;5090504;28;20048;-59
2023/04/10 07:14:15;;;;;;;9.57;5.00;;;10.20;99.90;;;;;;5089467;28;20043;-56
2023/04/10 07:16:46;;;;;;;6.68;4.60;;;10.20;99.90;;;;;;5104979;28;20051;-57
2023/04/10 07:19:14;;;;;;;8.68;5.40;;;10.30;99.90;;;;;;5102017;28;20044;-59
2023/04/10 07:21:42;;;;;;;9.82;5.63;;;10.20;99.90;;;;;;5087067;28;20055;-58
2023/04/10 07:24:10;;;;;;;8.77;5.47;;;10.40;99.90;;;;;;5104804;28;20047;-57
2023/04/10 07:26:38;;;;;;;7.50;4.57;;;10.50;99.90;;;;;;5108790;28;20491;-57
2023/04/10 07:29:08;;;;;;;7.90;4.47;;;10.50;99.90;;;;;;5112497;28;20047;-56
2023/04/10 07:31:36;;;;;;;8.70;5.30;;;10.50;99.90;;;;;;5112875;28;20059;-57
2023/04/10 07:34:04;;;;;;;7.88;4.55;;;10.60;99.90;;;;;;5111861;28;20475;-58
2023/04/10 07:36:32;;;;;;;6.70;3.78;;;10.70;99.90;;;;;;5111022;28;20044;-58
2023/04/10 07:39:00;;;;;;;7.47;4.90;;;10.60;99.90;;;;;;5110982;28;20047;-57
2023/04/10 07:41:28;;;;;;;9.95;4.43;;;10.70;99.90;;;;;;5093084;28;20384;-56
2023/04/10 07:43:55;;;;;;;6.85;4.53;;;10.70;99.90;;;;;;5101373;28;20356;-56
2023/04/10 07:46:23;;;;;;;7.78;4.05;;;10.70;99.90;;;;;;5091990;28;20043;-56
2023/04/10 07:48:51;;;;;;;6.45;3.88;;;10.60;99.90;;;;;;5106902;28;20044;-56
2023/04/10 07:51:19;;;;;;;7.82;4.78;;;10.70;99.90;;;;;;5089002;28;20052;-59
2023/04/10 07:53:46;;;;;;;11.38;3.88;;;10.70;99.90;;;;;;5106615;28;20441;-58
2023/04/10 07:56:18;;;;;;;5.85;4.00;;;10.70;99.90;;;;;;5094156;28;20059;-58
2023/04/10 07:58:50;;;;;;;7.72;3.70;;;10.70;99.90;;;;;;5112019;28;20390;-58
2023/04/10 08:01:20;;;;;;;7.75;3.67;;;10.80;99.90;;;;;;5091843;28;20040;-60
2023/04/10 08:03:48;;;;;;;7.72;3.67;;;10.80;99.90;;;;;;5106527;28;20051;-58
2023/04/10 08:06:18;;;;;;;5.45;3.28;;;10.90;99.90;;;;;;5112125;28;20392;-59
2023/04/10 08:08:45;;;;;;;4.22;3.00;;;10.90;99.90;;;;;;5110663;28;20074;-58
2023/04/10 08:11:30;;;;;;;5.72;2.42;;;11.00;99.90;;;;;;5111924;28;20122;-56
2023/04/10 08:14:00;;;;;;;3.88;2.40;;;11.10;99.90;;;;;;5105105;28;20514;-56
2023/04/10 08:16:29;;;;;;;;;;;11.10;99.90;;;;;;5112405;28;20044;-56
2023/04/10 08:19:01;;;;;;;4.82;2.80;;;11.20;99.90;;;;;;5110705;28;20247;-56
2023/04/10 08:21:30;;;;;;;5.82;3.45;;;11.20;99.90;;;;;;5111373;28;20048;-55
2023/04/10 08:23:59;;;;;;;;;;;11.30;99.90;;;;;;5110936;28;20046;-57
2023/04/10 08:26:28;;;;;;;2.70;2.03;;;11.30;99.90;;;;;;5111535;28;19923;-56
2023/04/10 08:28:58;;;;;;;3.85;1.45;;;11.40;99.90;;;;;;5111437;28;20342;-54
2023/04/10 08:31:27;;;;;;;2.20;1.45;;;11.50;99.90;;;;;;5110303;28;20039;-56
2023/04/10 08:33:56;;;;;;;2.00;1.17;;;11.60;99.90;;;;;;5107417;28;20043;-56
2023/04/10 08:36:25;;;;;;;2.65;1.50;;;11.60;99.90;;;;;;5110476;28;20059;-55
2023/04/10 08:38:53;;;;;;;4.90;1.38;;;11.60;99.90;;;;;;5110809;28;20047;-56
2023/04/10 08:41:21;;;;;;;2.45;1.17;;;11.60;99.90;;;;;;5092666;28;20047;-59
2023/04/10 08:43:49;;;;;;;3.25;1.40;;;11.70;99.90;;;;;;5110517;28;20066;-56
2023/04/10 08:46:17;;;;;;;4.30;1.45;;;11.70;99.90;;;;;;5111249;28;20514;-56
2023/04/10 08:48:52;;;;;;;4.35;1.38;;;11.80;99.90;;;;;;5111020;28;20557;-56
2023/04/10 08:51:21;;;;;;;2.30;1.00;;;11.90;99.90;;;;;;5091033;28;20051;-56
2023/04/10 08:54:00;;;;;;;2.70;1.10;;;12.00;99.90;;;;;;5089229;28;20047;-57
2023/04/10 08:56:34;;;;;;;1.67;0.95;;;12.10;99.90;;;;;;5101032;28;20627;-58
2023/04/10 08:59:02;;;;;;;1.77;0.88;;;12.10;99.90;;;;;;5110760;28;20541;-55
2023/04/10 09:01:30;;;;;;;2.55;1.00;;;12.10;99.90;;;;;;5110112;28;20052;-55
2023/04/10 09:03:58;;;;;;;2.65;1.30;;;12.10;99.90;;;;;;5110201;28;20055;-56
2023/04/10 09:06:27;;;;;;;3.53;1.10;;;12.10;99.90;;;;;;5100701;28;20039;-55
2023/04/10 09:08:54;;;;;;;4.28;1.20;;;12.10;99.90;;;;;;5102988;28;20561;-57
2023/04/10 09:11:22;;;;;;;6.30;1.35;;;12.10;99.90;;;;;;5096022;28;20039;-55
2023/04/10 09:13:50;;;;;;;7.35;1.10;;;12.10;99.90;;;;;;5110458;28;20047;-55
2023/04/10 09:16:28;;;;;;;3.42;0.80;;;12.20;99.90;;;;;;5092719;28;20051;-56
2023/04/10 09:18:56;;;;;;;5.57;1.20;;;12.20;99.90;;;;;;5110211;28;20048;-57
2023/04/10 09:21:26;;;;;;;4.43;0.85;;;12.20;99.90;;;;;;5106157;28;20051;-57
2023/04/10 09:24:00;;;;;;;2.63;1.00;;;12.20;99.90;;;;;;5106395;28;20050;-57
2023/04/10 09:26:30;;;;;;;7.10;1.35;;;12.20;99.90;;;;;;5109282;28;20046;-56
2023/04/10 09:29:04;;;;;;;5.00;1.00;;;12.20;99.90;;;;;;5091874;28;20050;-56
2023/04/10 09:31:33;;;;;;;2.42;1.10;;;12.20;99.90;;;;;;5110425;28;20036;-56
2023/04/10 09:34:20;;;;;;;5.07;1.20;;;12.20;99.90;;;;;;5109073;28;20047;-56
2023/04/10 09:36:55;;;;;;;9.15;1.60;;;12.30;99.90;;;;;;5102617;28;20039;-55
2023/04/10 09:39:35;;;;;;;4.75;1.40;;;12.40;99.90;;;;;;5106606;28;20044;-56
2023/04/10 09:42:03;;;;;;;3.43;0.90;;;;;;;;;;5090367;28;20044;-58
2023/04/10 09:44:34;;;;;;;2.97;0.90;;;12.60;99.90;;;;;;5110300;28;20296;-58
2023/04/10 09:47:20;;;;;;;5.43;0.88;;;12.70;99.90;;;;;;5110413;28;20052;-57
2023/04/10 09:49:49;;;;;;;4.05;0.82;;;12.70;99.90;;;;;;5093110;28;20039;-56
2023/04/10 09:52:25;;;;;;;4.35;1.23;;;12.80;99.90;;;;;;5108314;28;20051;-55
2023/04/10 09:54:55;;;;;;;7.00;1.00;;;12.80;99.90;;;;;;5094329;28;20063;-56
2023/04/10 09:57:25;;;;;;;7.07;1.15;;;12.80;99.90;;;;;;5092292;28;20044;-56
2023/04/10 09:59:54;;;;;;;;;;;12.80;99.90;;;;;;5110475;28;20048;-56
2023/04/10 10:02:24;;;;;;;5.75;0.90;;;12.90;99.90;;;;;;5106533;28;20348;-56
2023/04/10 10:04:53;;;;;;;2.95;0.65;;;12.90;99.90;;;;;;5106133;28;20500;-56
2023/04/10 10:07:22;;;;;;;10.77;2.17;;;13.20;99.90;;;;;;5107707;28;20052;-57
2023/04/10 10:09:51;;;;;;;4.03;1.30;;;13.30;99.90;;;;;;5108595;28;20044;-59
2023/04/10 10:12:33;;;;;;;7.72;1.10;;;13.40;99.90;;;;;;5109375;28;20043;-58
2023/04/10 10:15:24;;;;;;;8.88;1.33;;;13.40;99.90;;;;;;5109411;28;20043;-59
2023/04/10 10:18:06;;;;;;;7.40;0.80;;;13.50;99.90;;;;;;5109368;28;20036;-58
2023/04/10 10:20:35;;;;;;;4.75;1.20;;;13.60;99.90;;;;;;5108964;28;20655;-59
2023/04/10 10:23:03;;;;;;;8.52;1.27;;;13.90;99.90;;;;;;5107751;28;20051;-59
2023/04/10 10:25:33;;;;;;;8.15;1.42;;;14.30;99.90;;;;;;5109321;28;20040;-58
2023/04/10 10:28:04;;;;;;;8.57;1.00;;;14.30;99.90;;;;;;5091163;28;20044;-59
2023/04/10 10:30:34;;;;;;;8.85;1.83;;;14.50;99.90;;;;;;5109016;28;20036;-59
2023/04/10 10:33:06;;;;;;;6.30;1.45;;;14.50;99.90;;;;;;5109032;28;20051;-57
2023/04/10 10:35:35;;;;;;;8.77;1.45;;;14.40;99.90;;;;;;5106319;28;20040;-59
2023/04/10 10:38:04;;;;;;;4.38;0.98;;;14.30;99.90;;;;;;5109202;28;20074;-56
2023/04/10 10:40:34;;;;;;;10.80;1.50;;;14.20;99.90;;;;;;5108161;28;20054;-60
2023/04/10 10:43:21;;;;;;;7.15;1.30;;;14.10;99.90;;;;;;5108598;28;20051;-56
2023/04/10 10:46:00;;;;;;;7.05;1.30;;;14.00;99.90;;;;;;5109016;28;20051;-57
2023/04/10 10:48:28;;;;;;;11.10;1.40;;;13.90;99.90;;;;;;5108980;28;20044;-56
2023/04/10 10:51:01;;;;;;;13.00;1.92;;;13.80;99.90;;;;;;5102674;28;20062;-55
2023/04/10 10:53:43;;;;;;;7.22;1.02;;;13.70;99.90;;;;;;5108831;28;20350;-56
2023/04/10 10:56:21;;;;;;;4.93;0.93;;;13.70;99.90;;;;;;5108898;28;20047;-57
2023/04/10 10:59:00;;;;;;;4.95;1.10;;;13.80;99.90;;;;;;5108570;28;20046;-56
2023/04/10 11:01:28;;;;;;;6.25;1.13;;;13.70;99.90;;;;;;5103624;28;20090;-55
2023/04/10 11:03:56;;;;;;;5.72;1.10;;;13.70;99.90;;;;;;5104250;28;20074;-56
2023/04/10 11:06:49;;;;;;;8.65;1.38;;;13.70;99.90;;;;;;5106622;28;20047;-56
2023/04/10 11:09:52;;;;;;;6.03;1.73;;;13.50;99.90;;;;;;5108454;28;20058;-55
2023/04/10 11:12:23;;;;;;;10.57;1.80;;;13.20;99.90;;;;;;5107382;28;20043;-57
2023/04/10 11:15:09;;;;;;;3.85;0.75;;;12.70;99.90;;;;;;5095185;28;20062;-58
2023/04/10 11:17:48;;;;;;;2.70;0.35;;;12.00;99.90;;;;;;5092262;28;20048;-57
2023/04/10 11:20:27;;;;;;;3.65;0.50;;;10.90;99.90;;;;;;5108130;28;20048;-56
2023/04/10 11:23:11;;;;;;;3.63;0.55;;;10.40;99.90;;;;;;5107153;28;20055;-56
2023/04/10 11:25:48;;;;;;;5.75;0.55;;;10.40;99.90;;;;;;5108551;28;20051;-55
2023/04/10 11:28:30;;;;;;;6.82;0.65;;;10.20;99.90;;;;;;5108260;28;20550;-55
2023/04/10 11:31:14;;;;;;;6.05;0.90;;;10.00;99.90;;;;;;5107299;28;20062;-54
2023/04/10 11:33:42;;;;;;;7.05;0.90;;;9.90;99.90;;;;;;5106869;28;20054;-55
2023/04/10 11:36:14;;;;;;;6.03;1.23;;;9.90;99.90;;;;;;5107680;28;20411;-55
2023/04/10 11:38:53;;;;;;;6.75;0.80;;;9.90;99.90;;;;;;5107944;28;20055;-55
2023/04/10 11:41:29;;;;;;;10.38;0.90;;;10.00;99.90;;;;;;5108326;28;20383;-55
2023/04/10 11:44:02;;;;;;;1.10;0.32;;;10.00;99.90;;;;;;5107672;28;20043;-54
2023/04/10 11:46:30;;;;;;;1.90;0.47;;;10.00;99.90;;;;;;5102210;28;20410;-54
2023/04/10 11:49:00;;;;;;;0.95;0.20;;;9.90;99.90;;;;;;5099668;28;20040;-54
2023/04/10 11:51:28;;;;;;;1.15;0.30;;;10.00;99.90;;;;;;5097525;28;20036;-55
2023/04/10 11:54:10;;;;;;;0.95;0.30;;;10.00;99.90;;;;;;5107846;28;20079;-55
2023/04/10 11:56:40;;;;;;;3.42;0.30;;;10.10;99.90;;;;;;5108502;28;20063;-56
2023/04/10 11:59:09;;;;;;;1.88;0.10;;;10.40;99.90;;;;;;5107806;28;20043;-55
2023/04/10 12:01:39;;;;;;;0.65;0.30;;;10.80;99.90;;;;;;5099085;28;20047;-56
2023/04/10 12:04:28;;;;;;;0.32;0.15;;;11.70;99.90;;;;;;5105468;28;20047;-55
2023/04/10 12:06:56;;;;;;;0.95;0.30;;;11.80;99.90;;;;;;5107371;28;20490;-55
2023/04/10 12:09:25;;;;;;;0.25;0.20;;;12.20;99.90;;;;;;5108136;28;20047;-56
2023/04/10 12:12:00;;;;;;;1.70;0.38;;;12.50;99.90;;;;;;5073088;28;20051;-56
2023/04/10 12:14:37;;;;;;;2.15;0.20;;;12.70;99.90;;;;;;5089454;28;20058;-55
2023/04/10 12:17:06;;;;;;;1.75;0.40;;;12.50;99.90;;;;;;5091747;28;20051;-56
2023/04/10 12:19:40;;;;;;;0.40;0.10;;;12.10;99.90;;;;;;5091876;28;20435;-55
2023/04/10 12:22:11;;;;;;;2.50;0.22;;;12.10;99.90;;;;;;5103528;28;20039;-56
2023/04/10 12:24:47;;;;;;;2.20;0.30;;;11.90;99.90;;;;;;5111643;28;20047;-56
2023/04/10 12:27:19;;;;;;;1.90;0.50;;;11.90;99.90;;;;;;5111577;28;20048;-55
2023/04/10 12:29:47;;;;;;;1.83;0.20;;;11.80;99.90;;;;;;5108302;28;20055;-57
2023/04/10 12:32:15;;;;;;;0.10;0.10;;;11.50;99.90;;;;;;5111568;28;20605;-55
2023/04/10 12:34:51;;;;;;;0.90;0.10;;;11.50;99.90;;;;;;5094601;28;20055;-56
2023/04/10 12:37:19;;;;;;;0.75;0.10;;;11.40;99.90;;;;;;5106341;28;20048;-56
2023/04/10 12:39:47;;;;;;;1.55;0.20;;;11.40;99.90;;;;;;5110960;28;20052;-56
2023/04/10 12:42:21;;;;;;;0.40;0.15;;;11.50;99.90;;;;;;5111191;28;20040;-56
2023/04/10 12:44:58;;;;;;;0.25;0.10;;;11.60;99.90;;;;;;5111183;28;20054;-57
2023/04/10 12:47:27;;;;;;;1.23;0.28;;;11.60;99.90;;;;;;5111504;28;20043;-57
2023/04/10 12:50:15;;;;;;;0.80;0.28;;;11.60;99.90;;;;;;5111129;28;20056;-56
2023/04/10 12:53:06;;;;;;;1.55;0.30;;;11.80;99.90;;;;;;5104280;28;20055;-57
2023/04/10 12:55:34;;;;;;;1.50;0.10;;;11.90;99.90;;;;;;5110178;28;20044;-57
2023/04/10 12:58:26;;;;;;;1.20;0.22;;;12.10;99.90;;;;;;5107450;28;20078;-58
2023/04/10 13:00:55;;;;;;;2.70;0.25;;;12.30;99.90;;;;;;5107594;28;20047;-57
2023/04/10 13:03:23;;;;;;;0.47;0.32;;;13.20;99.90;;;;;;5110727;28;20047;-58
2023/04/10 13:05:52;;;;;;;2.33;0.25;;;13.20;99.90;;;;;;5095610;28;20044;-59
2023/04/10 13:08:21;;;;;;;0.52;0.10;;;13.60;99.90;;;;;;5109360;28;20402;-59
2023/04/10 13:10:49;;;;;;;1.38;0.35;;;14.00;99.90;;;;;;5111048;28;20047;-60
2023/04/10 13:13:16;;;;;;;2.78;0.30;;;14.70;99.90;;;;;;5109188;28;20046;-58
2023/04/10 13:15:44;;;;;;;1.98;0.15;;;15.00;99.90;;;;;;5110842;28;20051;-57